createdAt,value
2022-11-06T00:03:46.471Z,979.84
2022-11-06T00:09:22.876Z,979.7
2022-11-06T00:14:54.346Z,979.66
2022-11-06T00:20:25.820Z,979.69
2022-11-06T00:25:57.898Z,979.78
2022-11-06T00:31:29.175Z,979.68
2022-11-06T00:37:01.085Z,979.75
2022-11-06T00:42:33.408Z,979.7
2022-11-06T00:48:04.494Z,979.72
2022-11-06T00:53:36.087Z,979.87
2022-11-06T00:59:08.154Z,979.85
2022-11-06T01:04:39.792Z,979.67
2022-11-06T01:10:15.563Z,979.8
2022-11-06T01:15:47.435Z,979.62
2022-11-06T01:21:20.012Z,979.6
2022-11-06T01:27:27.572Z,979.49
2022-11-06T01:32:22.816Z,979.48
2022-11-06T01:37:54.552Z,979.31
2022-11-06T01:43:26.357Z,979.42
2022-11-06T01:48:57.799Z,979.01
2022-11-06T01:54:30.525Z,979.05
2022-11-06T02:00:02.428Z,979.1
2022-11-06T02:06:05.739Z,979.04
2022-11-06T02:11:10.439Z,979.15
2022-11-06T02:16:41.949Z,979.04
2022-11-06T02:22:13.751Z,979.14
2022-11-06T02:27:45.396Z,978.79
2022-11-06T02:33:16.888Z,978.47
2022-11-06T02:38:48.634Z,978.3
2022-11-06T02:44:20.436Z,978.09
2022-11-06T02:49:52.355Z,977.29
2022-11-06T02:55:24.171Z,977.67
2022-11-06T03:00:55.751Z,977.58
2022-11-06T03:06:27.178Z,977.84
2022-11-06T03:12:03.361Z,977.36
2022-11-06T03:17:35.097Z,977.59
2022-11-06T03:23:07.044Z,977.82
2022-11-06T03:28:38.455Z,977.55
2022-11-06T03:34:10.721Z,977.67
2022-11-06T03:39:42.214Z,977.67
2022-11-06T03:45:13.733Z,977.07
2022-11-06T03:50:45.433Z,977.39
2022-11-06T03:56:17.619Z,977.35
2022-11-06T04:01:49.352Z,977.12
2022-11-06T04:07:20.766Z,977.24
2022-11-06T04:12:58.971Z,976.93
2022-11-06T04:18:30.459Z,977.02
2022-11-06T04:24:02.361Z,977.17
2022-11-06T04:29:35.785Z,977.75
2022-11-06T04:35:05.485Z,977.68
2022-11-06T04:40:37.374Z,977.32
2022-11-06T04:46:08.986Z,976.28
2022-11-06T04:51:40.894Z,976.21
2022-11-06T04:57:12.323Z,976.22
2022-11-06T05:02:44.004Z,975.96
2022-11-06T05:08:16.958Z,976.2
2022-11-06T05:13:51.981Z,977.12
2022-11-06T05:19:23.561Z,977.19
2022-11-06T05:24:55.295Z,977.02
2022-11-06T05:30:27.042Z,976.81
2022-11-06T05:35:59.028Z,977.49
2022-11-06T05:41:30.641Z,977.27
2022-11-06T05:47:02.230Z,977.08
2022-11-06T05:52:34.003Z,977.15
2022-11-06T05:58:05.631Z,977.18
2022-11-06T06:03:37.419Z,977.13
2022-11-06T06:09:09.319Z,977.17
2022-11-06T06:14:51.091Z,976.65
2022-11-06T06:20:17.499Z,976.66
2022-11-06T06:25:48.751Z,976.38
2022-11-06T06:31:20.418Z,976.59
2022-11-06T06:36:52.078Z,976.29
2022-11-06T06:42:31.635Z,976.17
2022-11-06T06:47:55.532Z,976.39
2022-11-06T06:53:27.328Z,975.94
2022-11-06T06:58:58.998Z,974.89
2022-11-06T07:04:30.698Z,975.51
2022-11-06T07:10:02.820Z,975.45
2022-11-06T07:15:38.583Z,974.85
2022-11-06T07:21:10.408Z,974.7
2022-11-06T07:26:42.000Z,974.82
2022-11-06T07:32:13.711Z,975.43
2022-11-06T07:37:45.506Z,975.45
2022-11-06T07:43:17.092Z,975.46
2022-11-06T07:48:48.822Z,975.71
2022-11-06T07:54:20.460Z,975.58
2022-11-06T07:59:52.364Z,976.09
2022-11-06T08:05:24.576Z,976.48
2022-11-06T08:10:55.763Z,976.28
2022-11-06T08:16:31.868Z,976.56
2022-11-06T08:22:03.543Z,976.41
2022-11-06T08:27:35.558Z,976.94
2022-11-06T08:33:06.986Z,977.1
2022-11-06T08:38:38.961Z,977.93
2022-11-06T08:44:10.498Z,978.09
2022-11-06T08:49:42.188Z,978.35
2022-11-06T08:55:14.018Z,978.79
2022-11-06T09:00:45.882Z,978.92
2022-11-06T09:06:17.454Z,978.82
2022-11-06T09:11:49.231Z,979.01
2022-11-06T09:17:27.336Z,980.2
2022-11-06T09:22:59.082Z,979.7
2022-11-06T09:28:30.642Z,979.89
2022-11-06T09:34:02.362Z,980.8
2022-11-06T09:39:34.102Z,980.33
2022-11-06T09:45:05.906Z,980.78
2022-11-06T09:50:37.638Z,981.1
2022-11-06T09:56:09.473Z,980.95
2022-11-06T10:01:41.508Z,980.21
2022-11-06T10:07:12.781Z,980.93
2022-11-06T10:12:44.584Z,980.66
2022-11-06T10:18:20.640Z,981.16
2022-11-06T10:23:52.288Z,980.22
2022-11-06T10:29:24.072Z,980.82
2022-11-06T10:34:55.775Z,980.91
2022-11-06T10:40:27.502Z,980.28
2022-11-06T10:45:59.242Z,980.19
2022-11-06T10:51:30.898Z,980.24
2022-11-06T10:57:02.658Z,979.71
2022-11-06T11:02:34.767Z,979.67
2022-11-06T11:08:06.171Z,979.29
2022-11-06T11:13:37.923Z,978.89
2022-11-06T11:19:13.999Z,979.01
2022-11-06T11:24:45.750Z,979.13
2022-11-06T11:30:17.703Z,978.98
2022-11-06T11:35:49.159Z,979.35
2022-11-06T11:41:21.194Z,978.76
2022-11-06T11:46:52.668Z,979.24
2022-11-06T11:52:24.442Z,978.83
2022-11-06T11:57:56.181Z,978.88
2022-11-06T12:03:28.083Z,979.05
2022-11-06T12:08:59.536Z,978.95
2022-11-06T12:14:31.165Z,978.7
2022-11-06T12:20:07.312Z,978.57
2022-11-06T12:25:39.210Z,978.28
2022-11-06T12:31:10.914Z,977.97
2022-11-06T12:36:42.627Z,978.06
2022-11-06T12:42:14.313Z,977.71
2022-11-06T12:47:46.054Z,977.74
2022-11-06T12:53:17.722Z,977.96
2022-11-06T12:58:49.533Z,977.61
2022-11-06T13:04:21.183Z,977.65
2022-11-06T13:09:53.100Z,976.94
2022-11-06T13:15:24.780Z,976.87
2022-11-06T13:21:00.924Z,977.36
2022-11-06T13:26:32.498Z,976.82
2022-11-06T13:32:04.169Z,976.9
2022-11-06T13:37:35.957Z,976.95
2022-11-06T13:43:07.664Z,976.08
2022-11-06T13:48:39.528Z,976.97
2022-11-06T13:54:11.161Z,976.98
2022-11-06T13:59:42.897Z,976.92
2022-11-06T14:05:14.581Z,976.39
2022-11-06T14:10:46.278Z,976.45
2022-11-06T14:16:18.122Z,976.86
2022-11-06T14:21:56.102Z,976.53
2022-11-06T14:27:27.799Z,975.93
2022-11-06T14:32:59.665Z,976.36
2022-11-06T14:38:31.327Z,975.86
2022-11-06T14:44:03.111Z,975.74
2022-11-06T14:49:34.791Z,975.23
2022-11-06T14:55:06.878Z,974.81
2022-11-06T15:00:38.223Z,974.53
2022-11-06T15:06:10.028Z,974.39
2022-11-06T15:11:48.822Z,974.67
2022-11-06T15:17:13.622Z,974.73
2022-11-06T15:22:49.543Z,974.73
2022-11-06T15:28:21.326Z,974.37
2022-11-06T15:33:56.723Z,974.17
2022-11-06T15:39:24.735Z,974.25
2022-11-06T15:44:56.476Z,973.83
2022-11-06T15:50:28.192Z,973.36
2022-11-06T15:55:59.927Z,973.44
2022-11-06T16:01:32.114Z,973.22
2022-11-06T16:07:03.502Z,973.52
2022-11-06T16:12:35.151Z,973.83
2022-11-06T16:18:06.875Z,973.97
2022-11-06T16:23:43.096Z,973.6
2022-11-06T16:29:14.918Z,973.43
2022-11-06T16:34:46.647Z,973.47
2022-11-06T16:40:18.292Z,973.38
2022-11-06T16:45:50.037Z,973.08
2022-11-06T16:51:21.701Z,973.08
2022-11-06T16:56:53.512Z,973.07
2022-11-06T17:02:25.742Z,972.88
2022-11-06T17:07:57.052Z,972.81
2022-11-06T17:13:28.716Z,972.68
2022-11-06T17:19:01.042Z,973.11
2022-11-06T17:24:39.219Z,973.41
2022-11-06T17:30:10.263Z,973.76
2022-11-06T17:35:42.098Z,973.45
2022-11-06T17:41:13.712Z,973.59
2022-11-06T17:46:45.526Z,973.09
2022-11-06T17:52:17.150Z,973.71
2022-11-06T17:57:49.143Z,973.83
2022-11-06T18:03:21.371Z,972.98
2022-11-06T18:08:52.282Z,973.5
2022-11-06T18:14:24.038Z,973.83
2022-11-06T18:19:55.722Z,973.48
2022-11-06T18:25:32.009Z,974.15
2022-11-06T18:31:03.639Z,974.07
2022-11-06T18:36:35.622Z,973.94
2022-11-06T18:42:07.065Z,973.7
2022-11-06T18:47:38.715Z,973.53
2022-11-06T18:53:10.539Z,973.12
2022-11-06T18:58:42.246Z,973.44
2022-11-06T19:04:14.123Z,973.37
2022-11-06T19:09:45.831Z,973.47
2022-11-06T19:15:17.507Z,973.38
2022-11-06T19:20:49.148Z,974.08
2022-11-06T19:26:33.039Z,974.22
2022-11-06T19:31:56.925Z,974.41
2022-11-06T19:37:28.707Z,973.99
2022-11-06T19:43:00.487Z,974.04
2022-11-06T19:48:32.569Z,973.91
2022-11-06T19:54:03.990Z,973.97
2022-11-06T19:59:35.572Z,973.83
2022-11-06T20:05:07.419Z,973.96
2022-11-06T20:10:39.330Z,974.29
2022-11-06T20:16:10.868Z,973.96
2022-11-06T20:21:42.711Z,973.71
2022-11-06T20:27:18.817Z,973.75
2022-11-06T20:32:50.603Z,973.78
2022-11-06T20:38:22.522Z,973.97
2022-11-06T20:43:53.933Z,973.91
2022-11-06T20:49:25.681Z,973.67
2022-11-06T20:54:57.481Z,974.08
2022-11-06T21:00:29.041Z,973.72
2022-11-06T21:06:01.115Z,973.87
2022-11-06T21:11:32.691Z,973.51
2022-11-06T21:17:04.325Z,973.44
2022-11-06T21:22:36.156Z,973.92
2022-11-06T21:28:12.248Z,973.67
2022-11-06T21:33:43.981Z,973.81
2022-11-06T21:39:15.828Z,974.04
2022-11-06T21:44:47.452Z,974.09
2022-11-06T21:50:19.542Z,974.07
2022-11-06T21:55:54.691Z,973.91
2022-11-06T22:01:23.228Z,974.44
2022-11-06T22:06:55.292Z,974.49
2022-11-06T22:12:26.945Z,974.61
2022-11-06T22:17:58.716Z,975.12
2022-11-06T22:23:30.496Z,975.54
2022-11-06T22:29:06.618Z,975.41
2022-11-06T22:34:38.391Z,975.27
2022-11-06T22:40:10.025Z,975.53
2022-11-06T22:45:42.194Z,975.37
2022-11-06T22:51:13.555Z,975.1
2022-11-06T22:56:45.498Z,975.04
2022-11-06T23:02:17.258Z,975.16
2022-11-06T23:07:48.806Z,975.08
2022-11-06T23:13:20.449Z,975.26
2022-11-06T23:18:52.124Z,975.2
2022-11-06T23:24:23.838Z,975.06
2022-11-06T23:30:00.038Z,975.13
2022-11-06T23:35:33.654Z,975.44
2022-11-06T23:41:03.526Z,975.21
2022-11-06T23:46:35.250Z,975.46
2022-11-06T23:52:06.818Z,975.62
2022-11-06T23:57:38.745Z,975.58
